createdAt,value
2023-06-04T00:00:09.752Z,101413.81
2023-06-04T00:02:36.307Z,101419.72
2023-06-04T00:05:02.869Z,101417.16
2023-06-04T00:07:29.309Z,101413.38
2023-06-04T00:09:55.896Z,101409.13
2023-06-04T00:12:22.409Z,101415.75
2023-06-04T00:14:48.847Z,101408.19
2023-06-04T00:17:15.313Z,101406.50
2023-06-04T00:19:42.076Z,101404.13
2023-06-04T00:22:08.681Z,101402.28
2023-06-04T00:24:35.813Z,101401.13
2023-06-04T00:27:02.392Z,101397.53
2023-06-04T00:29:28.884Z,101396.69
2023-06-04T00:31:55.657Z,101394.47
2023-06-04T00:34:22.690Z,101390.22
2023-06-04T00:36:49.295Z,101394.25
2023-06-04T00:39:15.822Z,101396.59
2023-06-04T00:41:42.324Z,101394.06
2023-06-04T00:44:08.848Z,101395.19
2023-06-04T00:46:37.036Z,101397.91
2023-06-04T00:49:03.736Z,101400.13
2023-06-04T00:51:30.856Z,101400.56
2023-06-04T00:53:57.280Z,101391.34
2023-06-04T00:56:23.778Z,101396.66
2023-06-04T00:58:50.350Z,101404.63
2023-06-04T01:01:19.868Z,101404.31
2023-06-04T01:03:47.328Z,101404.31
2023-06-04T01:06:22.386Z,101403.63
2023-06-04T01:08:55.699Z,101403.78
2023-06-04T01:11:38.083Z,101402.22
2023-06-04T01:14:05.208Z,101403.03
2023-06-04T01:16:37.410Z,101405.94
2023-06-04T01:19:03.949Z,101404.06
2023-06-04T01:21:31.408Z,101406.50
2023-06-04T01:24:01.699Z,101408.22
2023-06-04T01:26:29.114Z,101402.59
2023-06-04T01:28:56.370Z,101410.69
2023-06-04T01:31:24.208Z,101410.81
2023-06-04T01:33:59.994Z,101407.56
2023-06-04T01:36:26.619Z,101416.19
2023-06-04T01:38:53.068Z,101398.66
2023-06-04T01:41:19.521Z,101401.22
2023-06-04T01:43:46.017Z,101401.22
2023-06-04T01:46:12.624Z,101407.84
2023-06-04T01:48:40.115Z,101412.88
2023-06-04T01:51:07.632Z,101412.66
2023-06-04T01:53:34.292Z,101409.09
2023-06-04T01:56:00.752Z,101411.25
2023-06-04T01:58:30.312Z,101413.13
2023-06-04T02:01:00.790Z,101411.72
2023-06-04T02:03:27.879Z,101402.06
2023-06-04T02:05:54.459Z,101410.47
2023-06-04T02:08:21.238Z,101407.25
2023-06-04T02:10:48.298Z,101405.53
2023-06-04T02:13:14.849Z,101407.53
2023-06-04T02:15:41.414Z,101413.66
2023-06-04T02:18:17.196Z,101416.22
2023-06-04T02:20:45.800Z,101408.38
2023-06-04T02:23:12.701Z,101412.28
2023-06-04T02:25:39.196Z,101409.00
2023-06-04T02:28:05.665Z,101404.59
2023-06-04T02:30:32.581Z,101411.91
2023-06-04T02:33:02.047Z,101398.63
2023-06-04T02:35:29.160Z,101399.94
2023-06-04T02:37:57.660Z,101398.25
2023-06-04T02:40:24.209Z,101399.44
2023-06-04T02:42:50.803Z,101403.28
2023-06-04T02:45:17.325Z,101397.84
2023-06-04T02:47:43.881Z,101401.59
2023-06-04T02:50:10.732Z,101397.16
2023-06-04T02:52:42.638Z,101399.72
2023-06-04T02:55:10.632Z,101398.03
2023-06-04T02:57:37.064Z,101398.03
2023-06-04T03:00:13.090Z,101394.44
2023-06-04T03:02:41.027Z,101387.34
2023-06-04T03:05:09.294Z,101390.34
2023-06-04T03:07:35.842Z,101387.81
2023-06-04T03:10:02.271Z,101399.63
2023-06-04T03:12:28.843Z,101396.38
2023-06-04T03:14:55.375Z,101400.94
2023-06-04T03:17:21.982Z,101392.66
2023-06-04T03:19:49.600Z,101395.66
2023-06-04T03:22:16.138Z,101392.53
2023-06-04T03:24:42.732Z,101383.16
2023-06-04T03:27:10.335Z,101395.47
2023-06-04T03:29:37.018Z,101392.06
2023-06-04T03:32:04.107Z,101395.91
2023-06-04T03:34:35.616Z,101390.25
2023-06-04T03:37:02.474Z,101390.56
2023-06-04T03:39:28.983Z,101392.97
2023-06-04T03:41:56.241Z,101381.13
2023-06-04T03:44:22.781Z,101391.97
2023-06-04T03:46:49.322Z,101391.97
2023-06-04T03:49:18.306Z,101397.69
2023-06-04T03:51:44.955Z,101394.81
2023-06-04T03:54:11.443Z,101398.97
2023-06-04T03:56:37.874Z,101391.97
2023-06-04T03:59:04.441Z,101385.34
2023-06-04T04:01:31.103Z,101387.53
2023-06-04T04:03:57.897Z,101383.47
2023-06-04T04:06:24.468Z,101383.31
2023-06-04T04:08:50.892Z,101377.03
2023-06-04T04:11:26.323Z,101377.41
2023-06-04T04:13:52.825Z,101378.66
2023-06-04T04:16:19.369Z,101374.78
2023-06-04T04:18:46.236Z,101377.03
2023-06-04T04:21:12.702Z,101375.69
2023-06-04T04:23:41.628Z,101384.91
2023-06-04T04:26:10.104Z,101375.59
2023-06-04T04:28:36.707Z,101377.19
2023-06-04T04:31:03.778Z,101381.19
2023-06-04T04:33:33.849Z,101374.03
2023-06-04T04:36:01.072Z,101380.94
2023-06-04T04:38:29.889Z,101371.34
2023-06-04T04:40:56.712Z,101379.38
2023-06-04T04:43:35.989Z,101380.91
2023-06-04T04:46:02.629Z,101372.56
2023-06-04T04:48:29.038Z,101372.56
2023-06-04T04:50:55.570Z,101379.72
2023-06-04T04:53:22.207Z,101380.94
2023-06-04T04:55:48.884Z,101377.00
2023-06-04T04:58:16.071Z,101386.00
2023-06-04T05:00:42.728Z,101387.88
2023-06-04T05:03:09.202Z,101382.91
2023-06-04T05:05:35.868Z,101390.78
2023-06-04T05:08:02.385Z,101383.44
2023-06-04T05:10:28.887Z,101382.59
2023-06-04T05:12:55.724Z,101381.41
2023-06-04T05:15:22.360Z,101385.03
2023-06-04T05:17:49.009Z,101397.75
2023-06-04T05:20:16.858Z,101392.69
2023-06-04T05:22:44.609Z,101398.59
2023-06-04T05:25:11.434Z,101397.94
2023-06-04T05:27:38.054Z,101385.69
2023-06-04T05:30:05.030Z,101393.00
2023-06-04T05:32:33.361Z,101393.34
2023-06-04T05:35:00.368Z,101390.94
2023-06-04T05:37:29.876Z,101394.03
2023-06-04T05:39:56.783Z,101390.78
2023-06-04T05:42:23.781Z,101397.41
2023-06-04T05:44:50.485Z,101406.94
2023-06-04T05:47:17.927Z,101408.63
2023-06-04T05:49:44.538Z,101413.69
2023-06-04T05:52:11.338Z,101416.06
2023-06-04T05:54:40.999Z,101413.97
2023-06-04T05:57:07.430Z,101418.94
2023-06-04T05:59:33.906Z,101414.84
2023-06-04T06:02:00.794Z,101416.66
2023-06-04T06:04:27.566Z,101424.63
2023-06-04T06:06:54.623Z,101433.44
2023-06-04T06:09:21.196Z,101436.47
2023-06-04T06:11:47.662Z,101431.00
2023-06-04T06:14:14.191Z,101434.22
2023-06-04T06:16:41.425Z,101430.94
2023-06-04T06:19:08.001Z,101441.13
2023-06-04T06:21:34.549Z,101449.09
2023-06-04T06:24:01.198Z,101444.97
2023-06-04T06:26:27.815Z,101444.84
2023-06-04T06:28:54.452Z,101447.66
2023-06-04T06:31:21.639Z,101442.59
2023-06-04T06:33:48.209Z,101449.50
2023-06-04T06:36:14.666Z,101455.72
2023-06-04T06:38:41.366Z,101473.78
2023-06-04T06:41:08.197Z,101465.69
2023-06-04T06:43:35.073Z,101469.94
2023-06-04T06:46:01.632Z,101469.69
2023-06-04T06:48:28.125Z,101471.50
2023-06-04T06:50:55.080Z,101473.19
2023-06-04T06:53:21.866Z,101466.03
2023-06-04T06:55:48.319Z,101473.91
2023-06-04T06:58:14.751Z,101477.69
2023-06-04T07:00:41.392Z,101481.44
2023-06-04T07:03:09.595Z,101467.50
2023-06-04T07:05:36.216Z,101481.19
2023-06-04T07:08:03.644Z,101481.69
2023-06-04T07:10:31.146Z,101490.22
2023-06-04T07:12:57.628Z,101488.38
2023-06-04T07:15:24.096Z,101482.09
2023-06-04T07:17:50.993Z,101496.63
2023-06-04T07:20:17.579Z,101495.78
2023-06-04T07:22:44.035Z,101496.47
2023-06-04T07:25:10.596Z,101496.19
2023-06-04T07:27:37.216Z,101496.34
2023-06-04T07:30:03.838Z,101499.25
2023-06-04T07:32:30.434Z,101499.91
2023-06-04T07:34:56.907Z,101505.50
2023-06-04T07:37:23.390Z,101509.78
2023-06-04T07:39:50.161Z,101511.09
2023-06-04T07:42:16.662Z,101496.34
2023-06-04T07:44:43.294Z,101492.38
2023-06-04T07:47:09.722Z,101497.31
2023-06-04T07:49:39.995Z,101503.56
2023-06-04T07:52:10.958Z,101499.91
2023-06-04T07:54:37.474Z,101497.50
2023-06-04T07:57:04.006Z,101496.81
2023-06-04T07:59:30.798Z,101493.59
2023-06-04T08:01:57.531Z,101492.38
2023-06-04T08:04:24.111Z,101492.38
2023-06-04T08:06:51.148Z,101489.06
2023-06-04T08:09:17.564Z,101483.97
2023-06-04T08:11:45.693Z,101482.75
2023-06-04T08:14:12.563Z,101480.50
2023-06-04T08:16:39.155Z,101486.06
2023-06-04T08:19:05.788Z,101478.25
2023-06-04T08:21:32.390Z,101472.25
2023-06-04T08:24:01.282Z,101466.78
2023-06-04T08:26:31.859Z,101470.91
2023-06-04T08:28:58.343Z,101470.16
2023-06-04T08:31:24.941Z,101474.00
2023-06-04T08:33:51.552Z,101476.75
2023-06-04T08:36:18.172Z,101470.94
2023-06-04T08:38:48.381Z,101485.66
2023-06-04T08:41:17.450Z,101478.22
2023-06-04T08:43:47.652Z,101486.13
2023-06-04T08:46:14.153Z,101482.03
2023-06-04T08:48:40.882Z,101483.72
2023-06-04T08:51:10.207Z,101478.38
2023-06-04T08:53:37.685Z,101488.47
2023-06-04T08:56:04.501Z,101486.44
2023-06-04T08:58:32.634Z,101487.63
2023-06-04T09:00:59.048Z,101497.03
2023-06-04T09:03:26.483Z,101492.91
2023-06-04T09:05:52.992Z,101490.03
2023-06-04T09:08:22.395Z,101491.09
2023-06-04T09:10:52.825Z,101488.34
2023-06-04T09:13:19.976Z,101490.69
2023-06-04T09:15:46.500Z,101494.25
2023-06-04T09:18:13.553Z,101487.53
2023-06-04T09:20:40.070Z,101489.66
2023-06-04T09:23:19.017Z,101487.44
2023-06-04T09:25:46.001Z,101484.63
2023-06-04T09:28:12.446Z,101496.19
2023-06-04T09:30:38.905Z,101503.56
2023-06-04T09:33:13.449Z,101504.66
2023-06-04T09:35:40.181Z,101496.34
2023-06-04T09:38:06.797Z,101498.00
2023-06-04T09:40:37.400Z,101503.13
2023-06-04T09:43:03.937Z,101495.38
2023-06-04T09:45:36.828Z,101498.44
2023-06-04T09:48:05.726Z,101503.59
2023-06-04T09:50:35.322Z,101498.38
2023-06-04T09:53:03.179Z,101509.03
2023-06-04T09:55:29.748Z,101502.94
2023-06-04T09:57:56.278Z,101506.97
2023-06-04T10:00:24.104Z,101513.75
2023-06-04T10:02:51.515Z,101517.78
2023-06-04T10:05:20.331Z,101514.00
2023-06-04T10:07:47.054Z,101515.69
2023-06-04T10:10:17.520Z,101507.69
2023-06-04T10:12:44.316Z,101507.47
2023-06-04T10:15:13.920Z,101503.25
2023-06-04T10:17:40.855Z,101506.81
2023-06-04T10:20:11.543Z,101507.63
2023-06-04T10:22:38.901Z,101505.09
2023-06-04T10:25:05.657Z,101503.19
2023-06-04T10:27:32.788Z,101498.34
2023-06-04T10:29:59.642Z,101497.13
2023-06-04T10:32:29.740Z,101485.13
2023-06-04T10:34:56.453Z,101480.72
2023-06-04T10:37:23.780Z,101477.31
2023-06-04T10:39:54.210Z,101484.50
2023-06-04T10:42:22.048Z,101482.38
2023-06-04T10:44:50.113Z,101475.59
2023-06-04T10:47:23.352Z,101476.22
2023-06-04T10:49:52.959Z,101471.56
2023-06-04T10:52:19.629Z,101475.97
2023-06-04T10:54:46.439Z,101480.66
2023-06-04T10:57:17.997Z,101476.22
2023-06-04T10:59:56.973Z,101480.44
2023-06-04T11:02:23.476Z,101480.81
2023-06-04T11:05:07.100Z,101479.72
2023-06-04T11:07:44.364Z,101481.19
2023-06-04T11:10:14.388Z,101478.00
2023-06-04T11:12:47.343Z,101472.91
2023-06-04T11:15:14.206Z,101475.47
2023-06-04T11:17:50.745Z,101480.72
2023-06-04T11:20:18.448Z,101468.59
2023-06-04T11:22:51.656Z,101476.00
2023-06-04T11:25:18.383Z,101471.34
2023-06-04T11:27:44.882Z,101484.81
2023-06-04T11:30:13.195Z,101484.44
2023-06-04T11:32:39.731Z,101481.56
2023-06-04T11:35:07.668Z,101486.34
2023-06-04T11:37:35.661Z,101484.63
2023-06-04T11:40:02.517Z,101483.03
2023-06-04T11:42:29.006Z,101484.50
2023-06-04T11:44:58.651Z,101476.88
2023-06-04T11:47:25.656Z,101483.72
2023-06-04T11:49:56.458Z,101491.50
2023-06-04T11:52:23.173Z,101475.44
2023-06-04T11:54:49.905Z,101477.03
2023-06-04T11:57:16.552Z,101469.16
2023-06-04T11:59:43.035Z,101467.47
2023-06-04T12:02:09.495Z,101472.16
2023-06-04T12:04:38.812Z,101466.78
2023-06-04T12:07:06.392Z,101463.81
2023-06-04T12:09:35.783Z,101466.16
2023-06-04T12:12:02.905Z,101475.88
2023-06-04T12:14:29.905Z,101469.59
2023-06-04T12:16:56.964Z,101464.34
2023-06-04T12:19:24.368Z,101465.84
2023-06-04T12:22:03.989Z,101459.97
2023-06-04T12:24:31.314Z,101466.09
2023-06-04T12:27:07.920Z,101460.81
2023-06-04T12:29:34.423Z,101456.19
2023-06-04T12:32:04.739Z,101461.84
2023-06-04T12:34:31.697Z,101458.03
2023-06-04T12:36:58.263Z,101455.31
2023-06-04T12:39:24.767Z,101454.25
2023-06-04T12:41:51.200Z,101452.34
2023-06-04T12:44:17.776Z,101447.13
2023-06-04T12:46:44.296Z,101444.38
2023-06-04T12:49:10.833Z,101450.66
2023-06-04T12:51:37.907Z,101452.72
2023-06-04T12:54:04.410Z,101451.78
2023-06-04T12:56:31.097Z,101447.19
2023-06-04T12:58:57.793Z,101444.88
2023-06-04T13:01:25.557Z,101450.13
2023-06-04T13:03:54.062Z,101449.16
2023-06-04T13:06:20.749Z,101449.63
2023-06-04T13:08:47.304Z,101449.94
2023-06-04T13:11:14.304Z,101440.44
2023-06-04T13:13:40.797Z,101437.91
2023-06-04T13:16:07.413Z,101438.97
2023-06-04T13:18:33.946Z,101427.34
2023-06-04T13:21:00.483Z,101430.09
2023-06-04T13:23:45.603Z,101426.50
2023-06-04T13:26:16.445Z,101424.78
2023-06-04T13:28:43.101Z,101427.53
2023-06-04T13:31:09.810Z,101426.28
2023-06-04T13:33:37.008Z,101428.66
2023-06-04T13:36:04.273Z,101424.00
2023-06-04T13:38:30.772Z,101424.84
2023-06-04T13:40:57.495Z,101425.25
2023-06-04T13:43:24.016Z,101434.72
2023-06-04T13:45:50.626Z,101429.41
2023-06-04T13:48:17.223Z,101430.00
2023-06-04T13:50:43.773Z,101436.72
2023-06-04T13:53:10.368Z,101433.16
2023-06-04T13:55:36.889Z,101423.25
2023-06-04T13:58:03.336Z,101418.81
2023-06-04T14:00:31.732Z,101416.91
2023-06-04T14:03:00.654Z,101406.59
2023-06-04T14:05:29.025Z,101413.56
2023-06-04T14:07:57.310Z,101405.34
2023-06-04T14:10:23.744Z,101410.81
2023-06-04T14:12:50.265Z,101413.13
2023-06-04T14:15:16.713Z,101414.56
2023-06-04T14:17:43.902Z,101412.28
2023-06-04T14:20:10.773Z,101406.41
2023-06-04T14:22:40.095Z,101407.25
2023-06-04T14:25:07.335Z,101406.59
2023-06-04T14:27:34.181Z,101400.03
2023-06-04T14:30:02.278Z,101402.97
2023-06-04T14:32:28.884Z,101404.41
2023-06-04T14:34:56.354Z,101392.16
2023-06-04T14:37:23.657Z,101399.91
2023-06-04T14:39:55.873Z,101388.31
2023-06-04T14:42:22.400Z,101383.44
2023-06-04T14:44:48.981Z,101389.53
2023-06-04T14:47:15.666Z,101382.75
2023-06-04T14:49:42.908Z,101386.91
2023-06-04T14:52:10.212Z,101374.91
2023-06-04T14:54:37.953Z,101387.38
2023-06-04T14:57:04.757Z,101383.38
2023-06-04T14:59:31.794Z,101385.06
2023-06-04T15:01:58.315Z,101388.22
2023-06-04T15:04:24.925Z,101381.44
2023-06-04T15:06:51.517Z,101386.28
2023-06-04T15:09:18.016Z,101395.50
2023-06-04T15:11:44.444Z,101397.41
2023-06-04T15:14:11.070Z,101391.50
2023-06-04T15:16:37.636Z,101397.53
2023-06-04T15:19:04.345Z,101399.38
2023-06-04T15:21:31.009Z,101397.22
2023-06-04T15:23:57.608Z,101392.13
2023-06-04T15:26:25.916Z,101391.22
2023-06-04T15:28:52.380Z,101397.47
2023-06-04T15:31:18.903Z,101383.97
2023-06-04T15:33:45.498Z,101382.28
2023-06-04T15:36:12.181Z,101388.13
2023-06-04T15:38:38.700Z,101382.59
2023-06-04T15:41:05.353Z,101390.16
2023-06-04T15:43:31.977Z,101387.81
2023-06-04T15:45:58.567Z,101386.75
2023-06-04T15:48:28.542Z,101395.63
2023-06-04T15:50:55.234Z,101393.06
2023-06-04T15:53:23.813Z,101397.13
2023-06-04T15:55:51.227Z,101396.53
2023-06-04T15:58:17.845Z,101399.25
2023-06-04T16:00:45.721Z,101394.97
2023-06-04T16:03:12.243Z,101391.78
2023-06-04T16:05:38.894Z,101394.50
2023-06-04T16:08:05.546Z,101392.22
2023-06-04T16:10:32.766Z,101391.88
2023-06-04T16:12:59.178Z,101392.22
2023-06-04T16:15:25.981Z,101391.31
2023-06-04T16:17:52.639Z,101390.38
2023-06-04T16:20:20.156Z,101389.94
2023-06-04T16:22:47.237Z,101391.00
2023-06-04T16:25:18.415Z,101390.59
2023-06-04T16:27:46.071Z,101388.75
2023-06-04T16:30:13.269Z,101389.28
2023-06-04T16:32:39.825Z,101388.44
2023-06-04T16:35:09.112Z,101392.41
2023-06-04T16:37:35.714Z,101388.94
2023-06-04T16:40:02.206Z,101386.50
2023-06-04T16:42:28.692Z,101381.03
2023-06-04T16:44:55.715Z,101376.88
2023-06-04T16:47:22.841Z,101374.13
2023-06-04T16:49:49.357Z,101379.03
2023-06-04T16:52:15.885Z,101385.75
2023-06-04T16:54:43.139Z,101382.25
2023-06-04T16:57:09.917Z,101381.50
2023-06-04T16:59:36.544Z,101376.50
2023-06-04T17:02:04.683Z,101380.56
2023-06-04T17:04:31.378Z,101371.91
2023-06-04T17:06:57.920Z,101376.50
2023-06-04T17:09:26.040Z,101377.16
2023-06-04T17:11:53.583Z,101376.13
2023-06-04T17:14:20.000Z,101370.59
2023-06-04T17:16:46.554Z,101369.94
2023-06-04T17:19:13.108Z,101366.16
2023-06-04T17:21:39.677Z,101366.91
2023-06-04T17:24:06.397Z,101365.69
2023-06-04T17:26:32.969Z,101361.34
2023-06-04T17:29:00.920Z,101359.66
2023-06-04T17:31:27.546Z,101357.84
2023-06-04T17:33:54.058Z,101362.00
2023-06-04T17:36:21.049Z,101360.97
2023-06-04T17:38:47.929Z,101360.31
2023-06-04T17:41:14.796Z,101359.63
2023-06-04T17:43:42.036Z,101357.81
2023-06-04T17:46:09.484Z,101356.88
2023-06-04T17:48:36.566Z,101358.72
2023-06-04T17:51:04.693Z,101358.94
2023-06-04T17:53:31.764Z,101356.97
2023-06-04T17:55:58.814Z,101354.97
2023-06-04T17:58:25.950Z,101364.56
2023-06-04T18:00:52.659Z,101364.91
2023-06-04T18:03:19.472Z,101365.34
2023-06-04T18:05:46.402Z,101371.94
2023-06-04T18:08:12.977Z,101375.66
2023-06-04T18:10:39.697Z,101377.28
2023-06-04T18:13:06.483Z,101373.47
2023-06-04T18:15:34.178Z,101377.72
2023-06-04T18:18:10.206Z,101368.50
2023-06-04T18:20:38.568Z,101381.94
2023-06-04T18:23:48.018Z,101375.47
2023-06-04T18:26:14.561Z,101377.16
2023-06-04T18:31:07.673Z,101379.81
2023-06-04T18:33:36.132Z,101385.28
2023-06-04T18:38:28.895Z,101388.06
2023-06-04T18:40:55.369Z,101391.84
2023-06-04T18:43:21.803Z,101397.31
2023-06-04T18:45:49.353Z,101392.69
2023-06-04T18:48:17.386Z,101399.38
2023-06-04T18:50:45.433Z,101397.00
2023-06-04T18:53:12.060Z,101402.84
2023-06-04T18:55:39.644Z,101407.97
2023-06-04T18:58:06.225Z,101401.72
2023-06-04T19:00:32.719Z,101406.06
2023-06-04T19:02:59.286Z,101404.91
2023-06-04T19:05:26.940Z,101402.03
2023-06-04T19:07:53.460Z,101399.69
2023-06-04T19:10:20.470Z,101402.16
2023-06-04T19:12:46.990Z,101410.75
2023-06-04T19:15:16.032Z,101413.81
2023-06-04T19:17:45.654Z,101414.19
2023-06-04T19:20:13.665Z,101414.91
2023-06-04T19:22:40.219Z,101419.34
2023-06-04T19:25:06.855Z,101420.72
2023-06-04T19:27:33.375Z,101420.94
2023-06-04T19:29:59.930Z,101431.47
2023-06-04T19:32:29.215Z,101434.03
2023-06-04T19:34:56.160Z,101430.13
2023-06-04T19:37:22.766Z,101437.09
2023-06-04T19:39:49.296Z,101434.75
2023-06-04T19:42:15.794Z,101445.28
2023-06-04T19:44:43.594Z,101443.91
2023-06-04T19:47:10.255Z,101449.34
2023-06-04T19:49:36.781Z,101447.53
2023-06-04T19:52:03.286Z,101446.69
2023-06-04T19:54:29.757Z,101456.56
2023-06-04T19:56:56.208Z,101461.16
2023-06-04T19:59:22.972Z,101457.63
2023-06-04T20:01:49.446Z,101456.25
2023-06-04T20:04:15.994Z,101469.56
2023-06-04T20:06:43.798Z,101459.69
2023-06-04T20:09:10.360Z,101466.84
2023-06-04T20:11:39.866Z,101460.34
2023-06-04T20:14:06.948Z,101458.97
2023-06-04T20:16:33.542Z,101459.13
2023-06-04T20:19:00.080Z,101455.03
2023-06-04T20:21:26.661Z,101462.34
2023-06-04T20:24:00.918Z,101461.69
2023-06-04T20:26:29.281Z,101465.56
2023-06-04T20:28:56.541Z,101466.06
2023-06-04T20:31:23.106Z,101455.84
2023-06-04T20:33:52.383Z,101460.13
2023-06-04T20:36:19.731Z,101471.38
2023-06-04T20:38:46.362Z,101469.50
2023-06-04T20:41:12.973Z,101471.88
2023-06-04T20:43:46.517Z,101465.22
2023-06-04T20:46:13.429Z,101460.31
2023-06-04T20:48:39.932Z,101462.53
2023-06-04T20:51:08.840Z,101460.09
2023-06-04T20:53:35.500Z,101459.63
2023-06-04T20:56:03.194Z,101459.94
2023-06-04T20:58:30.674Z,101448.38
2023-06-04T21:00:57.187Z,101456.72
2023-06-04T21:03:25.308Z,101451.47
2023-06-04T21:05:56.007Z,101450.44
2023-06-04T21:08:28.284Z,101443.28
2023-06-04T21:10:54.846Z,101433.41
2023-06-04T21:13:21.385Z,101430.69
2023-06-04T21:15:47.924Z,101435.44
2023-06-04T21:18:14.807Z,101433.94
2023-06-04T21:20:41.359Z,101437.69
2023-06-04T21:23:07.775Z,101442.63
2023-06-04T21:25:34.232Z,101448.25
2023-06-04T21:28:01.110Z,101445.22
2023-06-04T21:30:27.745Z,101443.66
2023-06-04T21:32:54.370Z,101440.59
2023-06-04T21:35:21.128Z,101444.88
2023-06-04T21:37:47.612Z,101446.41
2023-06-04T21:40:14.057Z,101448.47
2023-06-04T21:42:40.739Z,101441.81
2023-06-04T21:45:11.943Z,101449.31
2023-06-04T21:47:39.139Z,101448.63
2023-06-04T21:50:05.842Z,101454.44
2023-06-04T21:52:33.437Z,101452.03
2023-06-04T21:55:00.192Z,101459.19
2023-06-04T21:57:26.945Z,101451.72
2023-06-04T21:59:53.379Z,101453.91
2023-06-04T22:02:20.011Z,101455.59
2023-06-04T22:04:46.542Z,101458.84
2023-06-04T22:07:13.002Z,101462.25
2023-06-04T22:09:39.458Z,101469.22
2023-06-04T22:12:06.046Z,101467.84
2023-06-04T22:14:32.858Z,101463.06
2023-06-04T22:16:59.280Z,101466.31
2023-06-04T22:19:25.777Z,101464.78
2023-06-04T22:21:52.268Z,101458.66
2023-06-04T22:24:18.810Z,101453.72
2023-06-04T22:26:46.440Z,101457.81
2023-06-04T22:29:12.990Z,101460.72
2023-06-04T22:31:39.502Z,101464.63
2023-06-04T22:34:06.587Z,101468.53
2023-06-04T22:36:33.062Z,101471.59
2023-06-04T22:38:59.673Z,101464.44
2023-06-04T22:41:27.606Z,101472.13
2023-06-04T22:43:54.130Z,101479.41
2023-06-04T22:46:20.697Z,101476.88
2023-06-04T22:48:47.180Z,101479.59
2023-06-04T22:51:13.696Z,101485.88
2023-06-04T22:53:41.415Z,101496.41
2023-06-04T22:56:10.269Z,101498.06
2023-06-04T22:58:36.899Z,101501.34
2023-06-04T23:01:03.468Z,101503.50
2023-06-04T23:03:30.393Z,101510.09
2023-06-04T23:05:57.112Z,101507.25
2023-06-04T23:08:23.631Z,101509.84
2023-06-04T23:10:50.211Z,101509.31
2023-06-04T23:13:18.419Z,101506.34
2023-06-04T23:15:47.442Z,101500.38
2023-06-04T23:18:13.939Z,101501.06
2023-06-04T23:20:40.683Z,101508.44
2023-06-04T23:23:07.171Z,101501.94
2023-06-04T23:25:33.853Z,101495.91
2023-06-04T23:28:00.523Z,101500.94
2023-06-04T23:30:26.958Z,101507.84
2023-06-04T23:32:53.440Z,101507.00
2023-06-04T23:35:19.971Z,101514.69
2023-06-04T23:37:49.690Z,101507.59
2023-06-04T23:40:16.274Z,101498.28
2023-06-04T23:42:42.729Z,101498.88
2023-06-04T23:45:09.424Z,101484.34
2023-06-04T23:47:36.008Z,101490.84
2023-06-04T23:50:02.624Z,101489.44
2023-06-04T23:52:29.018Z,101478.47
2023-06-04T23:54:56.685Z,101482.78
2023-06-04T23:57:23.197Z,101483.69
2023-06-04T23:59:49.609Z,101486.75
